Arcadia, Illinois
Current Conditions -  °F | °C
As of 6:55 PM on Saturday 20 Dec 2014 (Local Time) from KIJX Reporting Station
Overcast Overcast  
Wind Chill: 39°   Ceiling: 3000
Heat Index: 39°   Visibility: 7mi
Dew Point: 34°   Wind: 3mph
Humidity: 82%   Direction: 140°SE
Pressure: 30.24"   Gusts: NA
Location:  39.7413°N, 90.2138°W
Report Text: KIJX 210055Z AUTO 14003KT 7SM OVC030 04/01 A3024 RMK AO2 T00410012
Loading
Personal Weather Stations






























Interactive Weather Map New forecast layout! Learn more

10-Day Weather Forecast

Advertisements
Track Severe Weather on mobile